Tampico, Illinois
Current Conditions -  °F | °C
As of 9:15 PM on Saturday 20 Dec 2014 (Local Time) from KSQI Reporting Station
Overcast Overcast  
Wind Chill: 27°   Ceiling: 1600
Heat Index: 32°   Visibility: 8mi
Dew Point: 27°   Wind: 5mph
Humidity: 80%   Direction: 150°SSE
Pressure: 30.22"   Gusts: NA
Location:  41.63°N, 89.79°W
Report Text: KSQI 210315Z 15004KT 8SM OVC016 00/M03 A3022 RMK AO1
Loading
Personal Weather Stations






























Interactive Weather Map New forecast layout! Learn more

10-Day Weather Forecast

Advertisements
Track Severe Weather on mobile